createdAt,value
2022-08-26T00:01:53.989Z,95225.72
2022-08-26T00:04:23.536Z,95228.47
2022-08-26T00:06:51.469Z,95227.13
2022-08-26T00:09:19.282Z,95221.50
2022-08-26T00:11:47.833Z,95222.81
2022-08-26T00:14:17.081Z,95228.22
2022-08-26T00:16:47.897Z,95227.19
2022-08-26T00:19:17.884Z,95230.06
2022-08-26T00:21:45.946Z,95219.97
2022-08-26T00:24:14.228Z,95228.06
2022-08-26T00:26:44.019Z,95221.44
2022-08-26T00:29:12.734Z,95224.06
2022-08-26T00:31:41.016Z,95230.53
2022-08-26T00:34:11.341Z,95224.09
2022-08-26T00:36:42.619Z,95226.03
2022-08-26T00:39:11.249Z,95218.81
2022-08-26T00:41:40.799Z,95225.75
2022-08-26T00:44:10.315Z,95217.72
2022-08-26T00:46:46.960Z,95219.19
2022-08-26T00:49:20.861Z,95220.22
2022-08-26T00:51:51.827Z,95222.50
2022-08-26T00:54:23.906Z,95226.22
2022-08-26T00:56:59.844Z,95221.91
2022-08-26T00:59:29.194Z,95218.25
2022-08-26T01:02:02.700Z,95216.72
2022-08-26T01:04:34.628Z,95217.66
2022-08-26T01:07:03.581Z,95230.09
2022-08-26T01:09:32.561Z,95220.25
2022-08-26T01:12:03.309Z,95219.00
2022-08-26T01:14:34.393Z,95224.81
2022-08-26T01:17:07.194Z,95225.47
2022-08-26T01:19:43.431Z,95215.50
2022-08-26T01:22:15.186Z,95213.69
2022-08-26T01:24:44.878Z,95219.06
2022-08-26T01:27:17.609Z,95223.75
2022-08-26T01:29:47.434Z,95216.19
2022-08-26T01:32:20.662Z,95221.03
2022-08-26T01:34:49.402Z,95220.56
2022-08-26T01:37:21.105Z,95224.59
2022-08-26T01:39:52.791Z,95218.16
2022-08-26T01:42:23.745Z,95217.50
2022-08-26T01:44:54.978Z,95216.91
2022-08-26T01:47:26.730Z,95219.50
2022-08-26T01:50:00.805Z,95220.16
2022-08-26T01:52:33.321Z,95220.31
2022-08-26T01:55:02.991Z,95218.03
2022-08-26T01:57:31.697Z,95228.19
2022-08-26T02:00:02.439Z,95219.19
2022-08-26T02:02:31.875Z,95218.56
2022-08-26T02:05:02.684Z,95222.81
2022-08-26T02:07:31.253Z,95224.59
2022-08-26T02:10:02.572Z,95222.50
2022-08-26T02:12:32.039Z,95228.78
2022-08-26T02:15:05.687Z,95227.28
2022-08-26T02:17:38.722Z,95223.69
2022-08-26T02:20:13.106Z,95218.06
2022-08-26T02:22:45.019Z,95222.59
2022-08-26T02:25:19.582Z,95221.47
2022-08-26T02:27:48.387Z,95220.00
2022-08-26T02:30:18.814Z,95226.47
2022-08-26T02:32:49.580Z,95221.31
2022-08-26T02:35:20.195Z,95225.81
2022-08-26T02:37:49.322Z,95220.00
2022-08-26T02:40:21.842Z,95216.94
2022-08-26T02:42:50.245Z,95216.78
2022-08-26T02:45:23.292Z,95217.44
2022-08-26T02:47:52.376Z,95221.94
2022-08-26T02:50:20.913Z,95210.31
2022-08-26T02:52:49.338Z,95217.25
2022-08-26T02:55:19.511Z,95213.78
2022-08-26T02:57:47.304Z,95213.97
2022-08-26T03:00:15.873Z,95211.53
2022-08-26T03:02:43.700Z,95203.16
2022-08-26T03:05:12.191Z,95208.31
2022-08-26T03:07:40.056Z,95211.38
2022-08-26T03:10:09.066Z,95213.00
2022-08-26T03:12:38.668Z,95213.19
2022-08-26T03:15:16.430Z,95210.44
2022-08-26T03:17:46.344Z,95213.66
2022-08-26T03:20:15.472Z,95213.00
2022-08-26T03:22:43.496Z,95212.84
2022-08-26T03:25:13.861Z,95208.72
2022-08-26T03:27:44.152Z,95208.88
2022-08-26T03:30:31.027Z,95210.19
2022-08-26T03:32:59.029Z,95207.78
2022-08-26T03:35:27.031Z,95217.28
2022-08-26T03:37:55.461Z,95209.72
2022-08-26T03:40:23.531Z,95205.53
2022-08-26T03:42:53.163Z,95213.13
2022-08-26T03:45:21.786Z,95205.75
2022-08-26T03:47:49.570Z,95213.78
2022-08-26T03:50:22.723Z,95212.47
2022-08-26T03:52:51.696Z,95209.63
2022-08-26T03:55:20.897Z,95213.47
2022-08-26T03:57:53.268Z,95205.91
2022-08-26T04:00:21.637Z,95205.44
2022-08-26T04:02:51.233Z,95207.53
2022-08-26T04:05:23.126Z,95208.66
2022-08-26T04:07:51.793Z,95193.03
2022-08-26T04:10:28.977Z,95203.34
2022-08-26T04:12:59.453Z,95205.13
2022-08-26T04:15:28.101Z,95199.84
2022-08-26T04:17:57.335Z,95196.91
2022-08-26T04:20:25.940Z,95204.69
2022-08-26T04:22:53.732Z,95202.53
2022-08-26T04:25:22.460Z,95199.81
2022-08-26T04:27:52.015Z,95207.06
2022-08-26T04:30:21.822Z,95196.91
2022-08-26T04:32:49.767Z,95202.25
2022-08-26T04:35:17.726Z,95202.25
2022-08-26T04:37:45.456Z,95209.34
2022-08-26T04:40:13.640Z,95201.41
2022-08-26T04:42:41.469Z,95203.50
2022-08-26T04:45:10.518Z,95208.19
2022-08-26T04:47:41.125Z,95203.13
2022-08-26T04:50:10.947Z,95192.00
2022-08-26T04:52:38.841Z,95196.38
2022-08-26T04:55:08.564Z,95198.44
2022-08-26T04:57:36.718Z,95198.13
2022-08-26T05:00:06.098Z,95198.44
2022-08-26T05:02:34.276Z,95205.72
2022-08-26T05:05:04.339Z,95205.19
2022-08-26T05:07:32.630Z,95203.56
2022-08-26T05:10:00.470Z,95205.41
2022-08-26T05:12:29.177Z,95205.81
2022-08-26T05:14:57.282Z,95203.31
2022-08-26T05:17:25.241Z,95209.56
2022-08-26T05:19:52.951Z,95206.41
2022-08-26T05:22:22.352Z,95211.84
2022-08-26T05:24:50.610Z,95211.31
2022-08-26T05:27:18.316Z,95216.94
2022-08-26T05:29:46.038Z,95215.47
2022-08-26T05:32:13.853Z,95217.53
2022-08-26T05:34:43.001Z,95217.34
2022-08-26T05:37:10.854Z,95212.34
2022-08-26T05:39:43.471Z,95220.69
2022-08-26T05:42:19.858Z,95231.34
2022-08-26T05:44:53.876Z,95227.59
2022-08-26T05:47:24.220Z,95233.00
2022-08-26T05:49:52.202Z,95226.97
2022-08-26T05:52:21.305Z,95230.66
2022-08-26T05:54:53.864Z,95230.91
2022-08-26T05:57:22.637Z,95230.84
2022-08-26T05:59:51.563Z,95230.75
2022-08-26T06:02:19.412Z,95225.06
2022-08-26T06:04:47.415Z,95228.69
2022-08-26T06:07:16.840Z,95232.38
2022-08-26T06:09:46.148Z,95223.25
2022-08-26T06:12:15.732Z,95221.19
2022-08-26T06:14:46.250Z,95222.56
2022-08-26T06:17:16.771Z,95222.41
2022-08-26T06:19:45.538Z,95222.75
2022-08-26T06:22:27.229Z,95224.44
2022-08-26T06:25:12.472Z,95216.50
2022-08-26T06:27:41.606Z,95212.66
2022-08-26T06:30:10.475Z,95215.88
2022-08-26T06:32:38.288Z,95217.19
2022-08-26T06:35:07.260Z,95208.91
2022-08-26T06:37:40.367Z,95202.69
2022-08-26T06:40:09.934Z,95207.38
2022-08-26T06:42:39.361Z,95203.81
2022-08-26T06:45:09.524Z,95204.66
2022-08-26T06:47:38.913Z,95206.63
2022-08-26T06:50:08.263Z,95195.94
2022-08-26T06:52:36.084Z,95202.56
2022-08-26T06:55:04.008Z,95201.34
2022-08-26T06:57:32.913Z,95198.91
2022-08-26T07:00:03.415Z,95200.91
2022-08-26T07:02:33.245Z,95198.72
2022-08-26T07:05:02.964Z,95203.19
2022-08-26T07:07:30.727Z,95205.50
2022-08-26T07:09:58.473Z,95203.91
2022-08-26T07:12:26.888Z,95204.75
2022-08-26T07:14:55.206Z,95211.09
2022-08-26T07:17:25.376Z,95209.47
2022-08-26T07:19:54.665Z,95214.41
2022-08-26T07:22:22.460Z,95206.19
2022-08-26T07:24:54.025Z,95210.25
2022-08-26T07:27:22.094Z,95213.59
2022-08-26T07:29:49.856Z,95217.53
2022-08-26T07:32:20.631Z,95210.88
2022-08-26T07:34:51.098Z,95213.78
2022-08-26T07:37:21.013Z,95218.47
2022-08-26T07:39:48.858Z,95221.66
2022-08-26T07:42:19.657Z,95224.13
2022-08-26T07:44:47.675Z,95221.78
2022-08-26T07:47:25.789Z,95228.63
2022-08-26T07:49:55.150Z,95221.75
2022-08-26T07:52:26.991Z,95225.16
2022-08-26T07:54:55.323Z,95221.81
2022-08-26T07:57:24.282Z,95222.66
2022-08-26T07:59:54.039Z,95223.41
2022-08-26T08:02:25.786Z,95223.53
2022-08-26T08:04:54.569Z,95219.03
2022-08-26T08:07:38.740Z,95222.41
2022-08-26T08:10:13.473Z,95225.00
2022-08-26T08:12:41.834Z,95219.06
2022-08-26T08:15:11.557Z,95216.28
2022-08-26T08:17:39.407Z,95216.66
2022-08-26T08:20:09.219Z,95224.97
2022-08-26T08:22:38.335Z,95218.31
2022-08-26T08:25:08.137Z,95218.56
2022-08-26T08:27:39.898Z,95221.50
2022-08-26T08:30:13.815Z,95221.88
2022-08-26T08:32:43.556Z,95215.59
2022-08-26T08:35:13.414Z,95225.94
2022-08-26T08:37:43.658Z,95225.97
2022-08-26T08:40:18.205Z,95214.13
2022-08-26T08:45:26.772Z,95222.56
2022-08-26T08:47:58.069Z,95223.19
2022-08-26T08:50:29.590Z,95221.72
2022-08-26T08:53:09.119Z,95220.66
2022-08-26T08:55:48.770Z,95223.25
2022-08-26T08:58:20.622Z,95217.53
2022-08-26T09:00:52.484Z,95216.50
2022-08-26T09:03:33.535Z,95216.31
2022-08-26T09:06:03.564Z,95215.06
2022-08-26T09:08:36.940Z,95208.31
2022-08-26T09:11:05.365Z,95211.06
2022-08-26T09:13:35.152Z,95213.50
2022-08-26T09:16:09.899Z,95209.50
2022-08-26T09:18:54.124Z,95217.22
2022-08-26T09:21:25.171Z,95214.81
2022-08-26T09:23:57.203Z,95217.38
2022-08-26T09:26:30.663Z,95218.44
2022-08-26T09:29:01.757Z,95215.50
2022-08-26T09:31:32.405Z,95206.97
2022-08-26T09:34:17.528Z,95216.00
2022-08-26T09:36:48.628Z,95206.88
2022-08-26T09:39:37.815Z,95211.84
2022-08-26T09:42:10.278Z,95211.13
2022-08-26T09:44:54.655Z,95196.34
2022-08-26T09:47:26.853Z,95200.78
2022-08-26T09:50:04.104Z,95191.72
2022-08-26T09:52:32.217Z,95192.22
2022-08-26T09:55:07.513Z,95184.78
2022-08-26T09:57:37.169Z,95182.06
2022-08-26T10:00:25.608Z,95180.81
2022-08-26T10:02:57.966Z,95168.28
2022-08-26T10:05:33.386Z,95164.75
2022-08-26T10:08:02.126Z,95153.81
2022-08-26T10:10:40.733Z,95157.00
2022-08-26T10:13:18.655Z,95151.06
2022-08-26T10:16:00.622Z,95157.41
2022-08-26T10:18:34.687Z,95150.59
2022-08-26T10:21:07.874Z,95141.00
2022-08-26T10:26:21.733Z,95136.47
2022-08-26T10:28:54.303Z,95129.56
2022-08-26T10:31:42.016Z,95124.50
2022-08-26T10:34:14.144Z,95123.09
2022-08-26T10:37:15.040Z,95127.50
2022-08-26T10:39:51.906Z,95117.53
2022-08-26T10:42:31.218Z,95117.53
2022-08-26T10:45:04.501Z,95111.09
2022-08-26T10:47:39.240Z,95106.25
2022-08-26T10:50:07.660Z,95112.31
2022-08-26T10:52:51.919Z,95105.53
2022-08-26T10:55:26.289Z,95102.72
2022-08-26T10:58:06.585Z,95087.47
2022-08-26T11:01:13.718Z,95089.06
2022-08-26T11:03:54.744Z,95079.88
2022-08-26T11:06:27.947Z,95082.44
2022-08-26T11:08:57.826Z,95077.78
2022-08-26T11:11:48.724Z,95070.81
2022-08-26T11:14:46.084Z,95069.00
2022-08-26T11:18:00.061Z,95068.72
2022-08-26T11:20:41.534Z,95065.44
2022-08-26T11:23:38.735Z,95069.72
2022-08-26T11:26:32.748Z,95056.56
2022-08-26T11:29:03.422Z,95065.72
2022-08-26T11:31:55.568Z,95048.84
2022-08-26T11:34:54.026Z,95051.09
2022-08-26T11:37:26.374Z,95050.66
2022-08-26T11:39:57.162Z,95045.56
2022-08-26T11:42:34.279Z,95050.84
2022-08-26T11:45:05.446Z,95057.78
2022-08-26T11:47:34.941Z,95048.38
2022-08-26T11:50:14.377Z,95048.59
2022-08-26T11:52:42.325Z,95043.72
2022-08-26T11:55:14.733Z,95042.53
2022-08-26T11:57:46.960Z,95039.69
2022-08-26T12:00:22.397Z,95041.16
2022-08-26T12:02:52.774Z,95036.44
2022-08-26T12:05:27.210Z,95038.13
2022-08-26T12:08:02.313Z,95037.91
2022-08-26T12:10:32.749Z,95033.31
2022-08-26T12:13:03.346Z,95033.16
2022-08-26T12:15:32.769Z,95029.53
2022-08-26T12:18:17.940Z,95033.59
2022-08-26T12:20:53.911Z,95030.59
2022-08-26T12:23:24.857Z,95030.06
2022-08-26T12:25:55.402Z,95031.69
2022-08-26T12:28:23.307Z,95022.69
2022-08-26T12:31:02.162Z,95025.34
2022-08-26T12:33:31.880Z,95024.13
2022-08-26T12:36:01.978Z,95020.41
2022-08-26T12:38:30.731Z,95012.25
2022-08-26T12:40:58.771Z,95012.72
2022-08-26T12:43:44.285Z,95010.34
2022-08-26T12:46:15.319Z,95008.13
2022-08-26T12:48:48.441Z,95005.16
2022-08-26T12:51:28.407Z,95001.78
2022-08-26T12:53:56.501Z,95007.09
2022-08-26T12:56:36.715Z,94994.34
2022-08-26T12:59:11.209Z,94990.97
2022-08-26T13:01:44.146Z,94993.09
2022-08-26T13:04:36.788Z,94984.69
2022-08-26T13:07:24.783Z,94983.25
2022-08-26T13:09:54.966Z,94980.72
2022-08-26T13:12:31.821Z,94982.06
2022-08-26T13:15:01.189Z,94978.00
2022-08-26T13:17:30.854Z,94974.75
2022-08-26T13:20:04.216Z,94973.34
2022-08-26T13:22:32.751Z,94967.75
2022-08-26T13:25:00.833Z,94961.63
2022-08-26T13:27:29.078Z,94965.53
2022-08-26T13:29:58.971Z,94961.88
2022-08-26T13:32:27.571Z,94960.53
2022-08-26T13:34:57.288Z,94965.69
2022-08-26T13:37:34.971Z,94961.88
2022-08-26T13:40:04.676Z,94958.06
2022-08-26T13:42:32.512Z,94952.34
2022-08-26T13:45:02.344Z,94953.53
2022-08-26T13:47:30.664Z,94954.38
2022-08-26T13:49:58.549Z,94951.53
2022-08-26T13:52:30.965Z,94955.97
2022-08-26T13:55:00.114Z,94955.94
2022-08-26T13:57:28.509Z,94949.13
2022-08-26T13:59:58.906Z,94957.63
2022-08-26T14:02:27.547Z,94947.81
2022-08-26T14:04:57.573Z,94952.22
2022-08-26T14:07:25.369Z,94953.09
2022-08-26T14:09:54.856Z,94944.41
2022-08-26T14:12:22.783Z,94940.41
2022-08-26T14:14:50.522Z,94941.19
2022-08-26T14:17:20.695Z,94944.00
2022-08-26T14:19:50.330Z,94951.75
2022-08-26T14:22:21.159Z,94942.34
2022-08-26T14:24:50.157Z,94943.53
2022-08-26T14:27:19.360Z,94946.03
2022-08-26T14:29:47.176Z,94948.69
2022-08-26T14:32:22.906Z,94951.59
2022-08-26T14:34:50.939Z,94946.69
2022-08-26T14:37:19.011Z,94947.69
2022-08-26T14:39:47.531Z,94944.16
2022-08-26T14:42:17.408Z,94939.50
2022-08-26T14:44:53.349Z,94943.63
2022-08-26T14:47:21.147Z,94938.47
2022-08-26T14:49:48.976Z,94939.44
2022-08-26T14:52:16.761Z,94934.56
2022-08-26T14:54:43.643Z,94939.19
2022-08-26T14:57:14.147Z,94932.75
2022-08-26T14:59:45.467Z,94932.84
2022-08-26T15:02:32.394Z,94920.13
2022-08-26T15:05:02.074Z,94921.44
2022-08-26T15:07:30.018Z,94925.03
2022-08-26T15:09:57.888Z,94919.53
2022-08-26T15:12:25.713Z,94913.50
2022-08-26T15:14:53.653Z,94915.09
2022-08-26T15:17:22.808Z,94912.69
2022-08-26T15:19:50.693Z,94910.69
2022-08-26T15:22:18.571Z,94909.75
2022-08-26T15:24:46.564Z,94906.56
2022-08-26T15:27:14.554Z,94907.69
2022-08-26T15:29:43.841Z,94896.75
2022-08-26T15:32:11.745Z,94905.34
2022-08-26T15:34:40.894Z,94895.66
2022-08-26T15:37:08.698Z,94898.66
2022-08-26T15:39:36.617Z,94893.97
2022-08-26T15:42:07.766Z,94901.44
2022-08-26T15:44:38.218Z,94896.53
2022-08-26T15:47:06.265Z,94897.63
2022-08-26T15:49:34.053Z,94895.59
2022-08-26T15:52:05.497Z,94892.41
2022-08-26T15:54:33.506Z,94885.78
2022-08-26T15:57:03.631Z,94881.75
2022-08-26T15:59:32.098Z,94881.50
2022-08-26T16:02:00.086Z,94886.50
2022-08-26T16:04:28.450Z,94885.09
2022-08-26T16:06:56.321Z,94883.56
2022-08-26T16:09:28.254Z,94877.59
2022-08-26T16:11:56.925Z,94887.66
2022-08-26T16:14:25.096Z,94890.53
2022-08-26T16:16:53.399Z,94887.03
2022-08-26T16:19:23.252Z,94888.00
2022-08-26T16:21:51.806Z,94887.47
2022-08-26T16:24:24.843Z,94887.78
2022-08-26T16:26:56.469Z,94889.66
2022-08-26T16:29:24.541Z,94893.28
2022-08-26T16:31:53.295Z,94892.16
2022-08-26T16:34:21.443Z,94901.41
2022-08-26T16:36:49.323Z,94899.09
2022-08-26T16:39:17.127Z,94904.44
2022-08-26T16:41:45.253Z,94910.69
2022-08-26T16:44:14.411Z,94904.06
2022-08-26T16:46:42.312Z,94910.59
2022-08-26T16:49:10.117Z,94908.66
2022-08-26T16:51:38.522Z,94919.41
2022-08-26T16:54:07.952Z,94916.94
2022-08-26T16:56:36.597Z,94903.91
2022-08-26T16:59:05.732Z,94902.03
2022-08-26T17:01:35.214Z,94909.63
2022-08-26T17:04:03.139Z,94900.47
2022-08-26T17:06:34.046Z,94910.69
2022-08-26T17:09:01.943Z,94911.06
2022-08-26T17:11:29.786Z,94909.53
2022-08-26T17:13:57.987Z,94914.28
2022-08-26T17:16:27.050Z,94920.59
2022-08-26T17:18:57.310Z,94914.41
2022-08-26T17:21:26.274Z,94919.59
2022-08-26T17:23:54.140Z,94913.66
2022-08-26T17:26:22.050Z,94915.59
2022-08-26T17:28:50.326Z,94919.91
2022-08-26T17:31:18.822Z,94917.91
2022-08-26T17:33:53.224Z,94922.59
2022-08-26T17:36:28.178Z,94927.28
2022-08-26T17:38:57.404Z,94924.81
2022-08-26T17:41:25.916Z,94925.53
2022-08-26T17:43:53.728Z,94922.63
2022-08-26T17:46:21.538Z,94930.44
2022-08-26T17:48:51.120Z,94937.84
2022-08-26T17:51:20.228Z,94949.63
2022-08-26T17:53:50.374Z,94950.72
2022-08-26T17:56:21.065Z,94958.50
2022-08-26T17:58:52.975Z,94966.28
2022-08-26T18:01:21.746Z,94968.53
2022-08-26T18:03:50.166Z,94964.81
2022-08-26T18:06:20.027Z,94969.41
2022-08-26T18:08:49.351Z,94972.06
2022-08-26T18:11:19.238Z,94964.88
2022-08-26T18:13:48.040Z,94974.25
2022-08-26T18:16:17.678Z,94970.47
2022-08-26T18:18:46.584Z,94967.94
2022-08-26T18:21:15.737Z,94964.72
2022-08-26T18:23:44.175Z,94966.94
2022-08-26T18:26:19.221Z,94965.63
2022-08-26T18:28:47.149Z,94961.94
2022-08-26T18:31:15.221Z,94970.47
2022-08-26T18:33:44.124Z,94968.38
2022-08-26T18:36:17.013Z,94974.53
2022-08-26T18:38:45.163Z,94990.97
2022-08-26T18:41:14.312Z,94986.13
2022-08-26T18:43:43.499Z,94996.25
2022-08-26T18:46:11.703Z,95000.13
2022-08-26T18:48:41.579Z,95000.81
2022-08-26T18:51:12.589Z,94997.09
2022-08-26T18:53:42.028Z,94996.63
2022-08-26T18:56:09.846Z,94998.38
2022-08-26T18:58:37.652Z,95021.34
2022-08-26T19:01:07.226Z,95018.00
2022-08-26T19:03:35.192Z,95048.53
2022-08-26T19:06:03.153Z,95048.88
2022-08-26T19:08:31.129Z,95049.97
2022-08-26T19:11:00.950Z,95082.56
2022-08-26T19:13:28.895Z,95081.19
2022-08-26T19:15:57.032Z,95084.53
2022-08-26T19:18:26.428Z,95095.22
2022-08-26T19:20:54.553Z,95098.19
2022-08-26T19:23:31.358Z,95114.28
2022-08-26T19:26:04.105Z,95106.59
2022-08-26T19:28:32.540Z,95112.50
2022-08-26T19:31:01.023Z,95116.25
2022-08-26T19:33:30.759Z,95154.16
2022-08-26T19:35:58.752Z,95161.00
2022-08-26T19:38:27.801Z,95162.88
2022-08-26T19:40:56.045Z,95148.91
2022-08-26T19:43:23.892Z,95145.31
2022-08-26T19:45:51.758Z,95133.50
2022-08-26T19:48:19.544Z,95118.91
2022-08-26T19:50:48.788Z,95100.34
2022-08-26T19:53:16.920Z,95087.66
2022-08-26T19:55:45.028Z,95078.47
2022-08-26T19:58:13.049Z,95056.44
2022-08-26T20:00:42.446Z,95055.22
2022-08-26T20:03:13.061Z,95045.06
2022-08-26T20:05:43.872Z,95052.63
2022-08-26T20:08:21.791Z,95047.88
2022-08-26T20:10:51.125Z,95057.78
2022-08-26T20:13:19.335Z,95063.25
2022-08-26T20:15:47.173Z,95068.25
2022-08-26T20:18:28.937Z,95063.59
2022-08-26T20:21:13.931Z,95060.03
2022-08-26T20:23:43.813Z,95070.66
2022-08-26T20:26:11.903Z,95067.66
2022-08-26T20:28:39.697Z,95071.47
2022-08-26T20:31:07.752Z,95080.16
2022-08-26T20:33:46.011Z,95076.09
2022-08-26T20:36:16.038Z,95074.16
2022-08-26T20:38:45.988Z,95072.22
2022-08-26T20:41:13.905Z,95077.91
2022-08-26T20:43:42.693Z,95086.09
2022-08-26T20:46:18.810Z,95080.84
2022-08-26T20:48:47.724Z,95084.72
2022-08-26T20:51:17.747Z,95106.28
2022-08-26T20:53:49.520Z,95086.84
2022-08-26T20:56:21.755Z,95099.22
2022-08-26T20:58:49.614Z,95097.63
2022-08-26T21:01:21.505Z,95102.94
2022-08-26T21:03:51.751Z,95108.75
2022-08-26T21:06:19.886Z,95110.00
2022-08-26T21:08:49.497Z,95100.19
2022-08-26T21:11:18.304Z,95088.44
2022-08-26T21:14:04.475Z,95091.19
2022-08-26T21:16:36.606Z,95100.03
2022-08-26T21:19:05.764Z,95101.81
2022-08-26T21:21:33.741Z,95119.38
2022-08-26T21:24:03.152Z,95134.34
2022-08-26T21:26:34.221Z,95149.03
2022-08-26T21:29:02.575Z,95161.66
2022-08-26T21:31:31.940Z,95167.28
2022-08-26T21:34:00.322Z,95174.72
2022-08-26T21:36:28.342Z,95188.88
2022-08-26T21:38:56.693Z,95197.53
2022-08-26T21:41:26.964Z,95200.44
2022-08-26T21:43:59.091Z,95200.59
2022-08-26T21:46:29.023Z,95211.53
2022-08-26T21:48:58.713Z,95213.31
2022-08-26T21:51:28.731Z,95212.50
2022-08-26T21:54:00.443Z,95208.41
2022-08-26T21:56:32.484Z,95205.69
2022-08-26T21:59:02.026Z,95203.09
2022-08-26T22:01:34.670Z,95196.13
2022-08-26T22:04:04.903Z,95196.13
2022-08-26T22:06:35.144Z,95181.94
2022-08-26T22:09:03.159Z,95184.94
2022-08-26T22:11:32.965Z,95182.66
2022-08-26T22:14:00.743Z,95184.88
2022-08-26T22:16:28.687Z,95183.91
2022-08-26T22:18:56.659Z,95179.53
2022-08-26T22:21:27.024Z,95175.19
2022-08-26T22:23:57.898Z,95183.09
2022-08-26T22:26:28.730Z,95174.38
2022-08-26T22:28:59.538Z,95169.25
2022-08-26T22:31:38.082Z,95155.53
2022-08-26T22:34:08.592Z,95160.22
2022-08-26T22:36:42.662Z,95164.41
2022-08-26T22:39:12.704Z,95165.41
2022-08-26T22:41:40.522Z,95165.41
2022-08-26T22:44:10.311Z,95163.22
2022-08-26T22:46:38.652Z,95161.78
2022-08-26T22:49:06.526Z,95162.13
2022-08-26T22:51:34.629Z,95165.53
2022-08-26T22:54:02.473Z,95172.00
2022-08-26T22:56:30.265Z,95173.97
2022-08-26T22:58:58.054Z,95171.06
2022-08-26T23:06:43.027Z,95169.16
2022-08-26T23:09:11.782Z,95189.16
2022-08-26T23:11:42.576Z,95190.09
2022-08-26T23:14:11.102Z,95187.66
2022-08-26T23:16:41.537Z,95192.44
2022-08-26T23:19:10.735Z,95190.50
2022-08-26T23:21:39.002Z,95203.22
2022-08-26T23:24:09.348Z,95198.56
2022-08-26T23:26:38.180Z,95194.38
2022-08-26T23:29:07.392Z,95199.53
2022-08-26T23:31:35.345Z,95200.34
2022-08-26T23:34:20.640Z,95195.25
2022-08-26T23:36:48.413Z,95198.16
2022-08-26T23:39:17.803Z,95199.16
2022-08-26T23:41:45.643Z,95197.59
2022-08-26T23:44:13.435Z,95202.78
2022-08-26T23:46:41.323Z,95209.38
2022-08-26T23:49:09.333Z,95204.91
2022-08-26T23:51:56.022Z,95209.88
2022-08-26T23:54:25.181Z,95207.50
2022-08-26T23:56:52.958Z,95202.34
2022-08-26T23:59:21.111Z,95197.22
